Time;durP1;ratioP1;P1;durP2;ratioP2;P2;SDS_P1;SDS_P2;PMS_P1;PMS_P2;Temp;Humidity;BMP_temperature;BMP_pressure;BME280_temperature;BME280_humidity;BME280_pressure;Samples;Min_cycle;Max_cycle;Signal;HPM_P1;HPM_P2
2021/12/03 00:02:03;;;;;;;4.33;1.83;;;-0.80;99.90;;;;;;5048773;28;20252;-70
2021/12/03 00:04:30;;;;;;;3.63;1.90;;;-0.80;99.90;;;;;;5048986;28;20211;-71
2021/12/03 00:06:57;;;;;;;4.00;1.70;;;-0.80;99.90;;;;;;5048734;28;20277;-71
2021/12/03 00:09:25;;;;;;;2.50;1.60;;;-0.80;99.90;;;;;;5048467;28;20232;-71
2021/12/03 00:11:52;;;;;;;4.10;1.70;;;-0.80;99.90;;;;;;5048655;28;20206;-71
2021/12/03 00:14:18;;;;;;;5.90;2.10;;;-0.90;99.90;;;;;;5048484;28;20206;-71
2021/12/03 00:16:45;;;;;;;3.53;2.00;;;-0.90;99.90;;;;;;5048356;28;20430;-72
2021/12/03 00:19:12;;;;;;;3.53;1.70;;;-0.90;99.90;;;;;;5048223;28;20260;-70
2021/12/03 00:21:38;;;;;;;2.00;1.57;;;-0.90;99.90;;;;;;5048576;28;20259;-69
2021/12/03 00:24:05;;;;;;;4.50;1.70;;;-0.90;99.90;;;;;;5048372;28;20288;-69
2021/12/03 00:26:33;;;;;;;2.83;1.80;;;-0.90;99.90;;;;;;5048419;28;20214;-69
2021/12/03 00:29:00;;;;;;;3.17;1.23;;;-0.90;99.90;;;;;;5048491;28;20260;-69
2021/12/03 00:31:27;;;;;;;3.83;1.43;;;-1.00;99.90;;;;;;5048274;28;20235;-69
2021/12/03 00:33:53;;;;;;;4.73;1.53;;;-0.90;99.90;;;;;;5048248;28;20214;-69
2021/12/03 00:36:20;;;;;;;2.23;1.73;;;-0.90;99.90;;;;;;5048317;28;20262;-70
2021/12/03 00:38:51;;;;;;;3.93;1.50;;;-1.00;99.90;;;;;;5047884;28;20283;-70
2021/12/03 00:41:20;;;;;;;4.53;1.90;;;-1.00;99.90;;;;;;5048163;28;21019;-70
2021/12/03 00:43:52;;;;;;;3.57;1.30;;;-0.90;99.90;;;;;;5048113;28;20619;-70
2021/12/03 00:46:19;;;;;;;2.70;1.90;;;-1.00;99.90;;;;;;5048266;28;20258;-72
2021/12/03 00:48:48;;;;;;;2.80;1.80;;;-1.00;99.90;;;;;;5048584;28;20269;-72
2021/12/03 00:51:15;;;;;;;6.13;1.90;;;-1.00;99.90;;;;;;5048085;28;20214;-72
2021/12/03 00:53:42;;;;;;;3.83;1.97;;;-0.90;99.90;;;;;;5048000;28;20212;-72
2021/12/03 00:56:10;;;;;;;2.83;2.03;;;-0.90;99.90;;;;;;5048104;28;20259;-72
2021/12/03 00:58:38;;;;;;;6.57;1.93;;;-0.90;99.90;;;;;;5047827;28;20338;-72
2021/12/03 01:01:09;;;;;;;4.40;2.30;;;-1.00;99.90;;;;;;5047425;28;20240;-72
2021/12/03 01:03:37;;;;;;;4.97;2.27;;;-1.10;99.90;;;;;;5048054;28;20267;-72
2021/12/03 01:06:08;;;;;;;4.37;2.30;;;-1.10;99.90;;;;;;5047792;28;20267;-72
2021/12/03 01:08:36;;;;;;;5.53;2.77;;;-1.00;99.90;;;;;;5052054;28;20206;-72
2021/12/03 01:11:07;;;;;;;2.97;2.30;;;-1.10;99.90;;;;;;5054618;28;20220;-72
2021/12/03 01:13:34;;;;;;;5.00;3.03;;;-1.10;99.90;;;;;;5054364;28;20656;-72
2021/12/03 01:16:09;;;;;;;4.60;2.07;;;-1.10;99.90;;;;;;5054046;28;20732;-72
2021/12/03 01:18:38;;;;;;;6.20;2.43;;;-1.10;99.90;;;;;;5054452;28;20277;-72
2021/12/03 01:21:06;;;;;;;2.40;1.80;;;-1.10;99.90;;;;;;5054156;28;20659;-71
2021/12/03 01:23:33;;;;;;;4.37;2.57;;;-1.10;99.90;;;;;;5054261;28;20218;-72
2021/12/03 01:26:00;;;;;;;5.00;2.87;;;-1.10;99.90;;;;;;5054568;28;20235;-72
2021/12/03 01:28:27;;;;;;;3.80;2.17;;;-1.20;99.90;;;;;;5054347;28;20231;-72
2021/12/03 01:30:54;;;;;;;4.00;2.40;;;-1.10;99.90;;;;;;5054301;28;20300;-72
2021/12/03 01:33:21;;;;;;;5.53;3.00;;;-1.20;99.90;;;;;;5054263;28;20292;-72
2021/12/03 01:35:49;;;;;;;5.40;2.87;;;-1.10;99.90;;;;;;5054391;28;20200;-71
2021/12/03 01:38:16;;;;;;;7.77;3.33;;;-1.10;99.90;;;;;;5054056;28;20235;-72
2021/12/03 01:40:43;;;;;;;2.40;1.77;;;-1.10;99.90;;;;;;5054036;28;20715;-72
2021/12/03 01:43:14;;;;;;;6.93;2.70;;;-1.00;99.90;;;;;;5054085;28;20246;-71
2021/12/03 01:45:42;;;;;;;4.80;2.60;;;-1.00;99.90;;;;;;5054073;28;20639;-70
2021/12/03 01:48:09;;;;;;;7.53;3.43;;;-1.00;99.90;;;;;;5054073;28;20205;-70
2021/12/03 01:50:38;;;;;;;4.90;3.00;;;-1.00;99.90;;;;;;5054424;28;20255;-70
2021/12/03 01:53:06;;;;;;;8.60;5.70;;;-1.00;99.90;;;;;;5054322;28;20221;-70
2021/12/03 01:55:33;;;;;;;5.47;3.90;;;-1.00;99.90;;;;;;5054253;28;20274;-71
2021/12/03 01:58:00;;;;;;;6.67;3.30;;;-0.90;99.90;;;;;;5053837;28;20680;-71
2021/12/03 02:00:30;;;;;;;7.87;3.13;;;-0.90;99.90;;;;;;5053821;28;20242;-71
2021/12/03 02:02:57;;;;;;;4.40;2.87;;;-0.90;99.90;;;;;;5054304;28;20211;-70
2021/12/03 02:05:24;;;;;;;4.03;2.63;;;-0.90;99.90;;;;;;5054154;28;20632;-71
2021/12/03 02:07:52;;;;;;;3.87;2.43;;;-0.80;99.90;;;;;;5054276;28;20569;-72
2021/12/03 02:10:22;;;;;;;2.77;2.43;;;-0.80;99.90;;;;;;5053992;28;20336;-72
2021/12/03 02:12:50;;;;;;;2.87;2.40;;;-0.70;99.90;;;;;;5054130;28;20687;-72
2021/12/03 02:15:17;;;;;;;3.40;2.50;;;-0.70;99.90;;;;;;5038908;28;20230;-71
2021/12/03 02:17:44;;;;;;;2.67;2.47;;;-0.70;99.90;;;;;;5033751;28;20285;-71
2021/12/03 02:20:12;;;;;;;3.60;2.63;;;-0.70;99.90;;;;;;5031002;28;20657;-71
2021/12/03 02:22:42;;;;;;;4.93;2.47;;;-0.70;99.90;;;;;;5031096;28;20738;-71
2021/12/03 02:25:11;;;;;;;3.77;2.60;;;-0.60;99.90;;;;;;5030784;28;20213;-71
2021/12/03 02:27:38;;;;;;;4.43;2.60;;;-0.70;99.90;;;;;;5030906;28;20282;-71
2021/12/03 02:30:07;;;;;;;3.13;2.20;;;-0.70;99.90;;;;;;5030782;28;20212;-71
2021/12/03 02:32:34;;;;;;;5.30;3.03;;;-0.70;99.90;;;;;;5030655;28;20211;-71
2021/12/03 02:35:00;;;;;;;4.00;2.57;;;-0.70;99.90;;;;;;5030678;28;20206;-71
2021/12/03 02:37:27;;;;;;;2.53;2.33;;;-0.60;99.90;;;;;;5030486;28;20254;-71
2021/12/03 02:39:55;;;;;;;2.23;2.03;;;-0.50;99.90;;;;;;5030607;28;20227;-71
2021/12/03 02:42:22;;;;;;;2.50;2.10;;;-0.50;99.90;;;;;;5030326;28;20211;-70
2021/12/03 02:44:48;;;;;;;2.87;2.50;;;-0.50;99.90;;;;;;5030370;28;20573;-69
2021/12/03 02:47:15;;;;;;;3.07;2.33;;;-0.50;99.90;;;;;;5030137;28;20215;-69
2021/12/03 02:49:43;;;;;;;3.93;2.30;;;-0.40;99.90;;;;;;5030652;28;20550;-70
2021/12/03 02:52:11;;;;;;;2.10;1.90;;;-0.40;99.90;;;;;;5030247;28;20659;-69
2021/12/03 02:54:38;;;;;;;2.53;2.20;;;-0.40;99.90;;;;;;5030559;28;20206;-69
2021/12/03 02:57:07;;;;;;;2.30;1.93;;;-0.40;99.90;;;;;;5029925;28;20214;-69
2021/12/03 02:59:34;;;;;;;5.30;2.27;;;-0.40;99.90;;;;;;5030085;28;20245;-70
2021/12/03 03:02:01;;;;;;;3.67;1.87;;;-0.30;99.90;;;;;;5030267;28;20262;-69
2021/12/03 03:04:29;;;;;;;2.13;1.90;;;-0.30;99.90;;;;;;5030457;28;20220;-69
2021/12/03 03:06:55;;;;;;;2.97;1.87;;;-0.30;99.90;;;;;;5030221;28;20212;-69
2021/12/03 03:09:22;;;;;;;3.43;1.77;;;-0.30;99.90;;;;;;5030144;28;20211;-69
2021/12/03 03:11:49;;;;;;;1.97;1.80;;;-0.30;99.90;;;;;;5030309;28;20261;-70
2021/12/03 03:14:17;;;;;;;2.57;1.80;;;-0.20;99.90;;;;;;5030135;28;20227;-69
2021/12/03 03:16:44;;;;;;;4.00;2.13;;;-0.30;99.90;;;;;;5030061;28;20206;-69
2021/12/03 03:19:12;;;;;;;2.43;1.73;;;-0.20;99.90;;;;;;5029896;28;20292;-70
2021/12/03 03:21:39;;;;;;;3.57;1.50;;;-0.20;99.90;;;;;;5030126;28;20211;-70
2021/12/03 03:24:07;;;;;;;1.63;1.53;;;-0.20;99.90;;;;;;5030054;28;20264;-70
2021/12/03 03:26:35;;;;;;;3.13;2.00;;;-0.20;99.90;;;;;;5029858;28;20295;-70
2021/12/03 03:29:04;;;;;;;2.60;1.30;;;-0.10;99.90;;;;;;5029807;28;20683;-69
2021/12/03 03:31:32;;;;;;;2.10;1.53;;;-0.10;99.90;;;;;;5028511;28;20212;-70
2021/12/03 03:33:58;;;;;;;7.60;2.13;;;-0.10;99.90;;;;;;5029820;28;20292;-70
2021/12/03 03:36:25;;;;;;;3.53;1.80;;;-0.10;99.90;;;;;;5029218;28;20766;-70
2021/12/03 03:38:52;;;;;;;1.67;1.57;;;-0.10;99.90;;;;;;5029537;28;20236;-70
2021/12/03 03:41:19;;;;;;;1.70;1.53;;;-0.10;99.90;;;;;;5029609;28;20211;-70
2021/12/03 03:43:45;;;;;;;4.03;1.80;;;0.00;99.90;;;;;;5029652;28;20210;-70
2021/12/03 03:46:12;;;;;;;3.30;1.87;;;0.00;99.90;;;;;;5029308;28;20209;-70
2021/12/03 03:48:40;;;;;;;3.97;1.93;;;0.00;99.90;;;;;;5029159;28;20701;-70
2021/12/03 03:51:07;;;;;;;2.03;1.73;;;-0.10;99.90;;;;;;5029202;28;20274;-70
2021/12/03 03:53:33;;;;;;;3.77;1.77;;;0.00;99.90;;;;;;5029436;28;20265;-70
2021/12/03 03:56:00;;;;;;;5.20;2.20;;;0.00;99.90;;;;;;5029335;28;20207;-70
2021/12/03 03:58:27;;;;;;;4.67;2.20;;;0.00;99.90;;;;;;5028977;28;20246;-70
2021/12/03 04:00:54;;;;;;;3.97;1.70;;;0.00;99.90;;;;;;5028823;28;20291;-71
2021/12/03 04:03:20;;;;;;;2.20;1.90;;;0.00;99.90;;;;;;5029037;28;20265;-69
2021/12/03 04:05:49;;;;;;;2.00;1.80;;;0.00;99.90;;;;;;5029195;28;20613;-70
2021/12/03 04:08:15;;;;;;;2.33;2.10;;;0.00;99.90;;;;;;5031609;28;20631;-70
2021/12/03 04:10:42;;;;;;;3.00;1.90;;;0.00;99.90;;;;;;5045225;28;20571;-70
2021/12/03 04:13:09;;;;;;;3.00;1.90;;;0.00;99.90;;;;;;5045059;28;20215;-70
2021/12/03 04:15:37;;;;;;;2.37;1.80;;;0.00;99.90;;;;;;5044952;28;21050;-70
2021/12/03 04:18:04;;;;;;;2.03;1.87;;;0.00;99.90;;;;;;5044421;28;20750;-70
2021/12/03 04:20:30;;;;;;;3.53;2.00;;;0.00;99.90;;;;;;5039456;28;20285;-70
2021/12/03 04:22:58;;;;;;;4.13;1.90;;;0.00;99.90;;;;;;5025318;28;20219;-69
2021/12/03 04:25:25;;;;;;;1.90;1.80;;;-0.10;99.90;;;;;;5024975;28;20209;-69
2021/12/03 04:27:52;;;;;;;4.53;2.10;;;0.00;99.90;;;;;;5025107;28;20272;-69
2021/12/03 04:30:22;;;;;;;3.83;1.93;;;0.10;99.90;;;;;;5024981;28;20216;-69
2021/12/03 04:32:49;;;;;;;2.97;1.90;;;0.10;99.90;;;;;;5024904;28;20209;-69
2021/12/03 04:35:17;;;;;;;2.27;1.90;;;0.10;99.90;;;;;;5024940;28;20690;-70
2021/12/03 04:37:44;;;;;;;1.93;1.57;;;0.10;99.90;;;;;;5024916;28;20206;-70
2021/12/03 04:40:14;;;;;;;2.87;1.77;;;0.00;99.90;;;;;;5024661;28;20239;-70
2021/12/03 04:42:41;;;;;;;2.40;1.73;;;0.00;99.90;;;;;;5024187;28;20261;-70
2021/12/03 04:45:10;;;;;;;4.10;1.93;;;-0.10;99.90;;;;;;5024417;28;20256;-70
2021/12/03 04:47:37;;;;;;;3.27;1.87;;;-0.10;99.90;;;;;;5024372;28;20211;-70
2021/12/03 04:50:07;;;;;;;4.30;2.53;;;-0.10;99.90;;;;;;5024203;28;20729;-70
2021/12/03 04:52:33;;;;;;;2.13;1.60;;;-0.10;99.90;;;;;;5024749;28;20211;-69
2021/12/03 04:55:00;;;;;;;1.73;1.30;;;-0.10;99.90;;;;;;5024719;28;20647;-69
2021/12/03 04:57:28;;;;;;;3.97;2.50;;;-0.20;99.90;;;;;;5033211;28;20692;-69
2021/12/03 04:59:55;;;;;;;2.00;1.80;;;-0.10;99.90;;;;;;5042425;28;20249;-70
2021/12/03 05:02:24;;;;;;;2.20;2.00;;;-0.20;99.90;;;;;;5033610;28;20211;-70
2021/12/03 05:04:52;;;;;;;1.80;1.43;;;-0.10;99.90;;;;;;5046775;28;21068;-69
2021/12/03 05:07:30;;;;;;;2.27;1.80;;;-0.10;99.90;;;;;;5046983;28;20212;-69
2021/12/03 05:09:57;;;;;;;4.17;2.30;;;-0.10;99.90;;;;;;5048301;28;20253;-69
2021/12/03 05:12:25;;;;;;;2.47;1.60;;;-0.20;99.90;;;;;;5047245;28;20213;-69
2021/12/03 05:14:53;;;;;;;1.53;1.43;;;-0.20;99.90;;;;;;5039367;28;20300;-69
2021/12/03 05:17:20;;;;;;;1.50;1.40;;;-0.10;99.90;;;;;;5036362;28;20538;-69
2021/12/03 05:19:47;;;;;;;2.20;1.80;;;-0.10;99.90;;;;;;5036129;28;20273;-70
2021/12/03 05:22:13;;;;;;;2.73;1.30;;;-0.20;99.90;;;;;;5034890;28;20276;-69
2021/12/03 05:24:45;;;;;;;2.40;1.60;;;-0.20;99.90;;;;;;5039294;28;20201;-70
2021/12/03 05:27:12;;;;;;;2.53;1.43;;;-0.20;99.90;;;;;;5037630;28;20190;-69
2021/12/03 05:29:38;;;;;;;1.40;1.30;;;-0.20;99.90;;;;;;5033986;28;20607;-69
2021/12/03 05:32:07;;;;;;;1.60;1.50;;;-0.20;99.90;;;;;;5038366;28;20666;-69
2021/12/03 05:34:34;;;;;;;3.43;1.30;;;-0.20;99.90;;;;;;5035887;28;20261;-69
2021/12/03 05:37:00;;;;;;;2.73;1.70;;;-0.20;99.90;;;;;;5032811;28;20248;-70
2021/12/03 05:39:27;;;;;;;1.90;1.50;;;-0.20;99.90;;;;;;5033033;28;20230;-69
2021/12/03 05:41:54;;;;;;;1.57;1.37;;;-0.20;99.90;;;;;;5037930;28;20677;-69
2021/12/03 05:44:21;;;;;;;3.80;1.40;;;-0.20;99.90;;;;;;5031129;28;20267;-69
2021/12/03 05:46:47;;;;;;;4.13;1.93;;;-0.20;99.90;;;;;;5039722;28;20252;-69
2021/12/03 05:49:15;;;;;;;1.50;1.37;;;-0.20;99.90;;;;;;5042375;28;20208;-70
2021/12/03 05:51:42;;;;;;;1.93;1.80;;;-0.20;99.90;;;;;;5032844;28;20260;-68
2021/12/03 05:54:10;;;;;;;3.47;2.30;;;-0.10;99.90;;;;;;5032769;28;20263;-69
2021/12/03 05:56:37;;;;;;;3.33;2.10;;;-0.10;99.90;;;;;;5034020;28;20205;-69
2021/12/03 05:59:04;;;;;;;2.83;1.30;;;0.00;99.90;;;;;;5033636;28;20216;-69
2021/12/03 06:01:31;;;;;;;2.80;1.80;;;0.00;99.90;;;;;;5033470;28;20233;-69
2021/12/03 06:03:57;;;;;;;4.07;1.77;;;-0.10;99.90;;;;;;5031282;28;20268;-69
2021/12/03 06:06:25;;;;;;;1.93;1.63;;;-0.10;99.90;;;;;;5039691;28;20200;-69
2021/12/03 06:08:52;;;;;;;2.40;1.73;;;-0.20;99.90;;;;;;5045463;28;20211;-70
2021/12/03 06:11:19;;;;;;;2.53;1.73;;;-0.20;99.90;;;;;;5037269;28;20249;-70
2021/12/03 06:13:46;;;;;;;2.17;1.60;;;-0.20;99.90;;;;;;5034720;28;20243;-69
2021/12/03 06:16:14;;;;;;;2.77;1.80;;;-0.20;99.90;;;;;;5037942;28;20205;-69
2021/12/03 06:18:41;;;;;;;2.50;2.00;;;-0.20;99.90;;;;;;5047447;28;20224;-69
2021/12/03 06:21:09;;;;;;;5.40;1.93;;;-0.20;99.90;;;;;;5039429;28;20196;-70
2021/12/03 06:23:38;;;;;;;2.77;2.10;;;-0.20;99.90;;;;;;5045442;28;20217;-69
2021/12/03 06:26:10;;;;;;;7.87;2.20;;;-0.20;99.90;;;;;;5030232;28;20204;-69
2021/12/03 06:28:39;;;;;;;2.33;2.13;;;-0.10;99.90;;;;;;5030657;28;20273;-70
2021/12/03 06:31:06;;;;;;;2.93;2.10;;;-0.10;99.90;;;;;;5035862;28;20198;-69
2021/12/03 06:33:33;;;;;;;2.57;2.00;;;-0.20;99.90;;;;;;5037780;28;20207;-70
2021/12/03 06:36:00;;;;;;;4.00;2.10;;;-0.20;99.90;;;;;;5038904;28;20585;-70
2021/12/03 06:38:27;;;;;;;2.50;2.30;;;-0.10;99.90;;;;;;5040718;28;20759;-69
2021/12/03 06:40:55;;;;;;;2.60;2.33;;;-0.10;99.90;;;;;;5035267;28;20748;-69
2021/12/03 06:43:22;;;;;;;2.50;2.30;;;-0.10;99.90;;;;;;5040930;28;20696;-69
2021/12/03 06:45:49;;;;;;;6.20;2.40;;;-0.10;99.90;;;;;;5042958;28;20257;-69
2021/12/03 06:48:17;;;;;;;3.00;2.40;;;-0.10;99.90;;;;;;5040555;28;20205;-69
2021/12/03 06:50:45;;;;;;;3.10;2.73;;;-0.10;99.90;;;;;;5041342;28;20237;-70
2021/12/03 06:53:14;;;;;;;3.30;2.70;;;0.00;99.90;;;;;;5037858;28;20671;-69
2021/12/03 06:55:46;;;;;;;5.33;2.83;;;0.00;99.90;;;;;;5043785;28;20197;-69
2021/12/03 06:58:15;;;;;;;3.20;2.90;;;0.00;99.90;;;;;;5040370;28;20219;-69
2021/12/03 07:00:43;;;;;;;4.67;2.93;;;0.00;99.90;;;;;;5037467;28;20238;-70
2021/12/03 07:03:10;;;;;;;5.27;2.70;;;0.00;99.90;;;;;;5039633;28;20204;-70
2021/12/03 07:05:37;;;;;;;3.13;2.83;;;0.10;99.90;;;;;;5035982;28;20227;-70
2021/12/03 07:08:04;;;;;;;2.80;2.60;;;0.20;99.90;;;;;;5040697;28;20196;-71
2021/12/03 07:10:32;;;;;;;4.13;2.77;;;0.20;99.90;;;;;;5037881;28;20250;-70
2021/12/03 07:12:58;;;;;;;3.70;3.40;;;0.20;99.90;;;;;;5040503;28;20219;-70
2021/12/03 07:15:27;;;;;;;4.03;2.70;;;0.20;99.90;;;;;;5029478;28;20199;-69
2021/12/03 07:17:54;;;;;;;3.63;2.80;;;0.20;99.90;;;;;;5039706;28;20253;-69
2021/12/03 07:20:23;;;;;;;4.00;2.93;;;0.10;99.90;;;;;;5037780;28;20221;-69
2021/12/03 07:22:50;;;;;;;3.23;2.93;;;0.20;99.90;;;;;;5039767;28;20204;-70
2021/12/03 07:25:18;;;;;;;4.90;2.90;;;0.20;99.90;;;;;;5039648;28;20650;-69
2021/12/03 07:27:45;;;;;;;4.27;2.83;;;0.30;99.90;;;;;;5046550;28;20202;-70
2021/12/03 07:30:13;;;;;;;4.30;3.00;;;0.30;99.90;;;;;;5049460;28;20218;-70
2021/12/03 07:32:41;;;;;;;2.97;2.63;;;0.30;99.90;;;;;;5049587;28;20266;-68
2021/12/03 07:35:09;;;;;;;4.23;2.83;;;0.40;99.90;;;;;;5049468;28;20227;-68
2021/12/03 07:37:36;;;;;;;5.37;2.83;;;0.50;99.90;;;;;;5049260;28;20231;-69
2021/12/03 07:40:05;;;;;;;5.57;2.87;;;0.50;99.90;;;;;;5049208;28;20228;-70
2021/12/03 07:42:32;;;;;;;3.77;3.10;;;0.50;99.90;;;;;;5049410;28;20269;-69
2021/12/03 07:44:58;;;;;;;4.33;3.00;;;0.50;99.90;;;;;;5049438;28;20218;-69
2021/12/03 07:47:25;;;;;;;2.90;2.70;;;0.40;99.90;;;;;;5049017;28;20627;-69
2021/12/03 07:49:53;;;;;;;3.80;2.97;;;0.40;99.90;;;;;;5049093;28;20269;-69
2021/12/03 07:52:21;;;;;;;3.40;3.10;;;0.50;99.90;;;;;;5048565;28;20297;-69
2021/12/03 07:54:48;;;;;;;3.73;3.13;;;0.40;99.90;;;;;;5049192;28;20558;-69
2021/12/03 07:57:15;;;;;;;4.07;3.20;;;0.50;99.90;;;;;;5048844;28;20223;-69
2021/12/03 07:59:42;;;;;;;4.27;2.83;;;0.50;99.90;;;;;;5048529;28;20697;-70
2021/12/03 08:02:08;;;;;;;4.20;3.20;;;0.50;99.90;;;;;;5049150;28;20199;-69
2021/12/03 08:04:35;;;;;;;7.00;3.33;;;0.50;99.90;;;;;;5048685;28;20731;-69
2021/12/03 08:07:03;;;;;;;5.03;3.57;;;0.50;99.90;;;;;;5048882;28;20210;-69
2021/12/03 08:09:30;;;;;;;4.63;4.17;;;0.50;99.90;;;;;;5048495;28;20693;-69
2021/12/03 08:11:56;;;;;;;3.17;2.97;;;0.60;99.90;;;;;;5048932;28;20661;-69
2021/12/03 08:14:23;;;;;;;3.63;3.03;;;0.60;99.90;;;;;;5048286;28;20319;-69
2021/12/03 08:16:50;;;;;;;3.90;2.90;;;0.60;99.90;;;;;;5038738;28;20202;-69
2021/12/03 08:19:16;;;;;;;4.37;3.20;;;0.60;99.90;;;;;;5036204;28;20610;-70
2021/12/03 08:21:43;;;;;;;4.10;3.17;;;0.60;99.90;;;;;;5037105;28;20714;-70
2021/12/03 08:24:11;;;;;;;4.60;3.23;;;0.70;99.90;;;;;;5035918;28;20255;-69
2021/12/03 08:26:38;;;;;;;2.90;2.67;;;0.70;99.90;;;;;;5039216;28;20208;-69
2021/12/03 08:29:06;;;;;;;3.73;3.43;;;0.70;99.90;;;;;;5042987;28;20253;-69
2021/12/03 08:31:33;;;;;;;2.70;2.50;;;0.70;99.90;;;;;;5038142;28;20206;-69
2021/12/03 08:34:00;;;;;;;3.53;2.63;;;0.70;99.90;;;;;;5038930;28;20210;-70
2021/12/03 08:36:27;;;;;;;3.40;3.10;;;0.80;99.90;;;;;;5036806;28;20737;-70
2021/12/03 08:38:53;;;;;;;3.30;3.00;;;0.80;99.90;;;;;;5038057;28;20219;-69
2021/12/03 08:41:21;;;;;;;3.40;2.90;;;0.80;99.90;;;;;;5036192;28;20238;-70
2021/12/03 08:43:49;;;;;;;2.53;2.33;;;0.90;99.90;;;;;;5036437;28;20601;-69
2021/12/03 08:46:20;;;;;;;4.87;3.17;;;0.90;99.90;;;;;;5038281;28;20662;-70
2021/12/03 08:48:48;;;;;;;5.77;2.97;;;1.00;99.90;;;;;;5027778;28;20262;-69
2021/12/03 08:56:49;;;;;;;3.97;3.60;;;1.10;99.90;;;;;;5027739;28;20334;-70
2021/12/03 08:59:16;;;;;;;3.87;3.20;;;1.20;99.90;;;;;;5030745;28;20253;-70
2021/12/03 09:01:45;;;;;;;4.50;3.03;;;1.30;99.90;;;;;;5038906;28;20242;-70
2021/12/03 09:04:12;;;;;;;3.23;2.80;;;1.30;99.90;;;;;;5036176;28;20253;-69
2021/12/03 09:06:39;;;;;;;3.17;2.60;;;1.30;99.90;;;;;;5038675;28;20214;-69
2021/12/03 09:09:07;;;;;;;3.03;2.50;;;1.30;99.90;;;;;;5027917;28;20262;-69
2021/12/03 09:11:35;;;;;;;3.47;2.90;;;1.40;99.90;;;;;;5033451;28;20240;-69
2021/12/03 09:14:10;;;;;;;2.93;2.70;;;1.40;99.90;;;;;;5036209;28;20220;-69
2021/12/03 09:16:36;;;;;;;4.60;2.70;;;1.40;99.90;;;;;;5044205;28;20290;-69
2021/12/03 09:19:07;;;;;;;3.87;2.73;;;1.50;99.90;;;;;;5047672;28;20215;-69
2021/12/03 09:21:35;;;;;;;3.30;2.97;;;1.60;99.90;;;;;;5047799;28;20242;-69
2021/12/03 09:24:13;;;;;;;2.40;2.20;;;1.70;99.90;;;;;;5048127;28;20212;-70
2021/12/03 09:26:41;;;;;;;3.47;2.53;;;1.70;99.90;;;;;;5044558;28;20193;-70
2021/12/03 09:29:11;;;;;;;4.23;2.70;;;1.70;99.90;;;;;;5036121;28;20224;-69
2021/12/03 09:31:41;;;;;;;2.80;2.50;;;1.80;99.90;;;;;;5043183;28;20315;-69
2021/12/03 09:34:10;;;;;;;3.20;2.67;;;1.80;99.90;;;;;;5040254;28;20234;-69
2021/12/03 09:36:40;;;;;;;2.63;2.43;;;1.90;99.90;;;;;;5039865;28;20200;-69
2021/12/03 09:39:08;;;;;;;2.90;2.63;;;1.90;99.90;;;;;;5041246;28;20601;-69
2021/12/03 09:41:35;;;;;;;3.90;2.93;;;2.00;99.90;;;;;;5040029;28;20227;-69
2021/12/03 09:44:02;;;;;;;3.90;2.60;;;2.10;99.90;;;;;;5041068;28;20197;-70
2021/12/03 09:46:31;;;;;;;4.27;2.63;;;2.20;99.90;;;;;;5038140;28;20226;-70
2021/12/03 09:49:19;;;;;;;2.60;2.30;;;2.30;99.90;;;;;;5040000;28;20582;-70
2021/12/03 09:51:54;;;;;;;2.40;2.20;;;2.30;99.90;;;;;;5034120;28;20211;-70
2021/12/03 09:54:26;;;;;;;5.03;2.77;;;2.40;99.90;;;;;;5030867;28;20207;-69
2021/12/03 09:56:59;;;;;;;3.13;2.77;;;2.50;99.90;;;;;;5039211;28;20228;-69
2021/12/03 10:00:01;;;;;;;3.73;2.53;;;2.60;99.90;;;;;;5040932;28;20201;-69
2021/12/03 10:02:39;;;;;;;3.23;2.63;;;2.70;99.90;;;;;;5002553;28;20690;-70
2021/12/03 10:13:34;;;;;;;3.17;2.77;;;3.10;99.90;;;;;;4991188;28;20328;-70
2021/12/03 10:16:18;;;;;;;3.77;2.50;;;3.10;99.90;;;;;;4993862;28;20204;-70
2021/12/03 10:18:50;;;;;;;3.73;2.40;;;3.20;99.90;;;;;;4991082;28;20205;-70
2021/12/03 10:21:44;;;;;;;6.50;2.57;;;3.30;99.90;;;;;;4991389;28;20277;-69
2021/12/03 10:27:32;;;;;;;2.90;2.60;;;3.30;99.90;;;;;;4991108;28;20230;-70
2021/12/03 10:33:44;;;;;;;3.13;2.33;;;3.40;99.90;;;;;;4980383;28;20340;-70
2021/12/03 10:36:33;;;;;;;2.53;2.33;;;3.40;99.90;;;;;;4990980;28;20194;-70
2021/12/03 10:39:16;;;;;;;2.27;2.17;;;3.40;99.90;;;;;;5000831;28;20198;-70
2021/12/03 10:41:53;;;;;;;2.77;2.50;;;3.50;99.90;;;;;;4990191;28;20751;-70
2021/12/03 10:47:20;;;;;;;4.37;2.30;;;3.60;99.90;;;;;;4987388;28;20559;-70
2021/12/03 10:50:02;;;;;;;2.50;2.30;;;3.70;99.90;;;;;;4990746;28;20210;-70
2021/12/03 10:52:40;;;;;;;2.77;2.23;;;3.60;99.90;;;;;;4995754;28;20202;-70
2021/12/03 10:55:41;;;;;;;3.27;2.03;;;3.70;99.90;;;;;;4996004;28;20201;-70
2021/12/03 10:58:41;;;;;;;3.93;2.67;;;3.70;99.90;;;;;;5001193;28;20198;-71
2021/12/03 11:07:26;;;;;;;3.17;2.40;;;3.50;99.90;;;;;;5039110;28;20594;-70
2021/12/03 11:35:06;;;;;;;4.13;2.40;;;3.80;99.90;;;;;;5029027;28;20262;-70
2021/12/03 11:38:00;;;;;;;2.50;2.30;;;3.90;99.90;;;;;;5028865;28;20233;-70
2021/12/03 11:41:16;;;;;;;4.27;2.60;;;3.90;99.90;;;;;;5031458;28;20224;-70
2021/12/03 13:18:29;;;;;;;3.00;2.63;;;3.30;99.90;;;;;;5036776;28;20260;-70
2021/12/03 14:00:26;;;;;;;5.73;3.90;;;3.10;99.90;;;;;;5084757;28;20192;-69
2021/12/03 14:37:48;;;;;;;6.80;5.07;;;2.90;99.90;;;;;;5072548;28;20251;-70
2021/12/03 14:40:37;;;;;;;5.10;4.60;;;2.90;99.90;;;;;;5060620;28;20213;-70
2021/12/03 14:48:46;;;;;;;6.03;5.43;;;2.80;99.90;;;;;;5045384;28;20688;-71
2021/12/03 14:54:25;;;;;;;6.27;5.67;;;2.80;99.90;;;;;;5033278;28;20568;-70
2021/12/03 14:57:18;;;;;;;8.30;5.93;;;2.90;99.90;;;;;;5065725;28;20295;-73
2021/12/03 14:59:54;;;;;;;11.07;6.53;;;2.80;99.90;;;;;;5055444;28;20215;-71
2021/12/03 15:02:35;;;;;;;5.80;5.27;;;2.80;99.90;;;;;;5069836;28;20669;-70
2021/12/03 15:05:16;;;;;;;5.20;4.80;;;2.80;99.90;;;;;;5065429;28;20206;-73
2021/12/03 15:07:44;;;;;;;5.57;4.47;;;2.90;99.90;;;;;;5069739;28;20234;-74
2021/12/03 15:10:20;;;;;;;4.97;4.47;;;2.90;99.90;;;;;;5070297;28;20261;-76
2021/12/03 15:16:28;;;;;;;4.67;4.27;;;2.90;99.90;;;;;;5052370;28;20668;-70
2021/12/03 15:21:52;;;;;;;4.70;4.13;;;2.90;99.90;;;;;;5069468;28;20405;-74
2021/12/03 15:27:19;;;;;;;5.47;4.47;;;2.90;99.90;;;;;;5069808;28;20211;-68
2021/12/03 15:32:48;;;;;;;4.60;4.20;;;3.00;99.90;;;;;;5025951;28;20228;-73
2021/12/03 15:35:18;;;;;;;5.60;4.03;;;3.10;99.90;;;;;;5024251;28;20258;-71
2021/12/03 15:40:41;;;;;;;6.57;4.00;;;2.90;99.90;;;;;;5057106;28;20250;-71
2021/12/03 15:57:18;;;;;;;5.67;4.40;;;2.80;99.90;;;;;;5022766;28;20211;-71
2021/12/03 16:05:33;;;;;;;4.50;4.10;;;2.80;99.90;;;;;;5065303;28;20685;-70
2021/12/03 16:08:09;;;;;;;4.57;4.17;;;2.80;99.90;;;;;;5065876;28;20192;-70
2021/12/03 16:10:45;;;;;;;5.03;4.10;;;2.70;99.90;;;;;;5057763;28;20251;-71
2021/12/03 16:13:23;;;;;;;5.80;3.93;;;2.70;99.90;;;;;;5065034;28;20199;-71
2021/12/03 16:21:41;;;;;;;7.33;4.00;;;2.70;99.90;;;;;;5047112;28;20195;-70
2021/12/03 16:24:39;;;;;;;4.23;3.83;;;2.70;99.90;;;;;;5065227;28;20210;-71
2021/12/03 16:43:48;;;;;;;4.77;3.97;;;2.70;99.90;;;;;;5064605;28;20688;-71
2021/12/03 16:46:30;;;;;;;3.27;2.97;;;2.70;99.90;;;;;;5064269;28;20642;-71
2021/12/03 16:51:47;;;;;;;4.03;3.53;;;2.70;99.90;;;;;;5064434;28;20222;-71
2021/12/03 16:54:17;;;;;;;3.63;3.33;;;2.70;99.90;;;;;;5064333;28;20234;-72
2021/12/03 16:56:47;;;;;;;4.10;3.70;;;2.70;99.90;;;;;;5063738;28;20249;-71
2021/12/03 16:59:14;;;;;;;3.87;3.57;;;2.70;99.90;;;;;;5064134;28;20217;-71
2021/12/03 17:01:45;;;;;;;3.87;3.53;;;2.70;99.90;;;;;;5064318;28;20207;-71
2021/12/03 17:04:27;;;;;;;4.43;3.43;;;2.80;99.90;;;;;;5064240;28;20207;-71
2021/12/03 17:10:04;;;;;;;6.83;3.20;;;2.70;99.90;;;;;;5064364;28;20555;-71
2021/12/03 17:48:26;;;;;;;4.40;2.97;;;2.80;99.90;;;;;;5024427;28;20209;-72
2021/12/03 17:54:04;;;;;;;5.57;2.63;;;2.80;99.90;;;;;;5052560;28;20430;-72
2021/12/03 17:56:31;;;;;;;4.90;2.53;;;2.80;99.90;;;;;;5064110;28;20217;-71
2021/12/03 17:59:05;;;;;;;2.70;2.50;;;2.80;99.90;;;;;;5059820;28;20280;-72
2021/12/03 18:01:35;;;;;;;3.87;2.67;;;2.90;99.90;;;;;;5044353;28;20227;-72
2021/12/03 18:04:07;;;;;;;3.43;3.03;;;2.80;99.90;;;;;;5043696;28;20209;-72
2021/12/03 18:09:36;;;;;;;3.37;2.60;;;2.80;99.90;;;;;;5047932;28;20224;-75
2021/12/03 18:12:24;;;;;;;5.20;3.03;;;2.80;99.90;;;;;;5052899;28;20207;-70
2021/12/03 18:45:17;;;;;;;4.67;3.13;;;2.80;99.90;;;;;;5066787;28;20227;-72
2021/12/03 18:48:16;;;;;;;4.97;3.00;;;2.80;99.90;;;;;;5047343;28;20226;-72
2021/12/03 18:51:00;;;;;;;3.33;2.80;;;2.80;99.90;;;;;;5047152;28;20240;-72
2021/12/03 18:53:42;;;;;;;4.30;2.60;;;2.80;99.90;;;;;;5046562;28;20254;-73
2021/12/03 18:56:15;;;;;;;3.13;2.90;;;2.80;99.90;;;;;;5046662;28;20204;-72
2021/12/03 18:58:43;;;;;;;3.10;2.80;;;2.70;99.90;;;;;;5047163;28;20203;-72
2021/12/03 19:01:12;;;;;;;3.47;2.77;;;2.70;99.90;;;;;;5046891;28;20208;-72
2021/12/03 19:03:57;;;;;;;4.13;3.10;;;2.70;99.90;;;;;;5049277;28;20222;-72
2021/12/03 19:06:27;;;;;;;4.73;2.80;;;2.80;99.90;;;;;;5046326;28;20560;-72
2021/12/03 19:08:56;;;;;;;3.20;2.90;;;2.80;99.90;;;;;;5046212;28;20677;-72
2021/12/03 19:11:27;;;;;;;3.63;3.33;;;2.70;99.90;;;;;;5046606;28;20285;-72
2021/12/03 19:13:55;;;;;;;3.83;3.53;;;2.70;99.90;;;;;;5062504;28;20199;-72
2021/12/03 19:16:24;;;;;;;5.10;3.67;;;2.70;99.90;;;;;;5066237;28;20587;-72